createdAt,value
2023-02-03T00:00:20.457Z,2.38
2023-02-03T00:07:17.589Z,2.00
2023-02-03T00:10:05.317Z,1.80
2023-02-03T00:12:35.454Z,2.88
2023-02-03T00:15:03.452Z,1.63
2023-02-03T00:17:33.537Z,2.92
2023-02-03T00:20:01.451Z,1.75
2023-02-03T00:22:29.393Z,2.10
2023-02-03T00:24:57.327Z,2.28
2023-02-03T00:27:25.323Z,1.42
2023-02-03T00:29:54.659Z,0.95
2023-02-03T00:32:22.854Z,2.75
2023-02-03T00:34:51.098Z,2.30
2023-02-03T00:37:19.055Z,1.77
2023-02-03T00:39:47.539Z,2.40
2023-02-03T00:42:15.850Z,2.88
2023-02-03T00:44:45.302Z,2.85
2023-02-03T00:47:15.786Z,2.35
2023-02-03T00:49:43.754Z,1.85
2023-02-03T00:52:11.784Z,2.03
2023-02-03T00:54:39.824Z,2.30
2023-02-03T00:57:07.761Z,2.42
2023-02-03T00:59:35.763Z,1.92
2023-02-03T01:02:04.155Z,2.35
2023-02-03T01:04:33.472Z,2.25
2023-02-03T01:07:01.554Z,1.88
2023-02-03T01:09:33.886Z,2.42
2023-02-03T01:12:01.989Z,3.53
2023-02-03T01:14:30.559Z,2.38
2023-02-03T01:16:59.071Z,1.85
2023-02-03T01:19:27.132Z,1.75
2023-02-03T01:21:56.402Z,1.00
2023-02-03T01:24:24.356Z,1.98
2023-02-03T01:26:52.279Z,1.50
2023-02-03T01:29:20.186Z,1.35
2023-02-03T01:31:50.451Z,2.10
2023-02-03T01:34:18.587Z,2.25
2023-02-03T01:36:47.054Z,1.67
2023-02-03T01:39:16.349Z,1.60
2023-02-03T01:41:46.499Z,2.05
2023-02-03T01:44:49.323Z,1.85
2023-02-03T01:47:25.647Z,1.90
2023-02-03T01:49:58.795Z,1.88
2023-02-03T01:52:27.794Z,1.85
2023-02-03T01:54:59.234Z,1.92
2023-02-03T01:57:33.604Z,3.63
2023-02-03T02:00:03.510Z,2.55
2023-02-03T02:02:42.831Z,2.00
2023-02-03T02:05:18.568Z,2.50
2023-02-03T02:07:48.745Z,1.77
2023-02-03T02:10:18.417Z,2.30
2023-02-03T02:12:46.405Z,2.65
2023-02-03T02:15:14.875Z,2.45
2023-02-03T02:17:57.387Z,2.72
2023-02-03T02:20:35.447Z,2.53
2023-02-03T02:23:25.275Z,1.98
2023-02-03T02:26:15.858Z,1.70
2023-02-03T02:29:07.859Z,2.15
2023-02-03T02:31:54.803Z,1.60
2023-02-03T02:34:31.391Z,1.55
2023-02-03T02:37:05.800Z,2.25
2023-02-03T02:39:40.906Z,0.50
2023-02-03T02:42:16.308Z,2.33
2023-02-03T02:44:50.432Z,1.63
2023-02-03T02:47:21.303Z,2.13
2023-02-03T02:49:59.448Z,3.03
2023-02-03T02:52:31.019Z,1.52
2023-02-03T02:55:04.071Z,2.45
2023-02-03T02:57:35.089Z,2.38
2023-02-03T03:00:03.620Z,2.20
2023-02-03T03:02:35.534Z,1.92
2023-02-03T03:05:06.971Z,6.05
2023-02-03T03:07:44.697Z,3.88
2023-02-03T03:10:16.139Z,3.10
2023-02-03T03:12:49.907Z,1.90
2023-02-03T03:15:22.209Z,2.25
2023-02-03T03:17:57.187Z,1.65
2023-02-03T03:20:28.027Z,2.47
2023-02-03T03:22:59.899Z,1.40
2023-02-03T03:25:36.143Z,2.38
2023-02-03T03:28:09.684Z,2.10
2023-02-03T03:30:40.107Z,1.70
2023-02-03T03:33:10.384Z,2.65
2023-02-03T03:35:45.012Z,2.42
2023-02-03T03:38:19.928Z,2.53
2023-02-03T03:40:57.534Z,4.75
2023-02-03T03:43:29.467Z,7.25
2023-02-03T03:46:01.874Z,9.45
2023-02-03T03:48:35.309Z,6.75
2023-02-03T03:51:07.410Z,5.10
2023-02-03T03:53:38.671Z,2.17
2023-02-03T03:56:10.714Z,1.88
2023-02-03T03:58:41.845Z,2.53
2023-02-03T04:01:12.148Z,1.98
2023-02-03T04:03:45.917Z,2.35
2023-02-03T04:06:14.308Z,2.05
2023-02-03T04:08:42.279Z,3.40
2023-02-03T04:11:10.279Z,2.58
2023-02-03T04:13:38.293Z,1.90
2023-02-03T04:16:06.546Z,2.15
2023-02-03T04:18:34.476Z,2.97
2023-02-03T04:21:03.728Z,2.58
2023-02-03T04:23:31.646Z,2.55
2023-02-03T04:26:02.247Z,1.88
2023-02-03T04:28:30.165Z,2.13
2023-02-03T04:31:01.535Z,2.17
2023-02-03T04:33:29.553Z,2.67
2023-02-03T04:35:57.456Z,2.15
2023-02-03T04:38:26.717Z,2.05
2023-02-03T04:40:54.711Z,2.17
2023-02-03T04:43:22.663Z,2.97
2023-02-03T04:45:50.657Z,3.35
2023-02-03T04:48:18.631Z,2.13
2023-02-03T04:50:46.531Z,1.90
2023-02-03T04:53:15.978Z,1.83
2023-02-03T04:55:48.931Z,2.33
2023-02-03T04:58:16.843Z,2.30
2023-02-03T05:00:44.778Z,1.95
2023-02-03T05:03:12.860Z,2.33
2023-02-03T05:05:40.854Z,1.83
2023-02-03T05:08:08.775Z,1.60
2023-02-03T05:10:36.681Z,2.13
2023-02-03T05:13:06.143Z,1.42
2023-02-03T05:15:34.190Z,1.98
2023-02-03T05:18:02.085Z,1.50
2023-02-03T05:20:30.109Z,2.20
2023-02-03T05:22:59.173Z,1.65
2023-02-03T05:25:27.201Z,1.25
2023-02-03T05:27:55.155Z,1.88
2023-02-03T05:30:24.419Z,1.40
2023-02-03T05:32:52.352Z,1.83
2023-02-03T05:35:20.282Z,1.33
2023-02-03T05:37:48.988Z,1.88
2023-02-03T05:40:34.461Z,2.20
2023-02-03T05:43:02.427Z,1.80
2023-02-03T05:45:32.418Z,2.35
2023-02-03T05:48:02.459Z,1.38
2023-02-03T05:50:33.193Z,2.30
2023-02-03T05:53:09.275Z,1.90
2023-02-03T05:55:38.152Z,1.63
2023-02-03T05:58:06.262Z,2.28
2023-02-03T06:00:35.561Z,2.30
2023-02-03T06:03:18.224Z,2.90
2023-02-03T06:05:46.158Z,2.47
2023-02-03T06:08:14.102Z,2.35
2023-02-03T06:10:42.244Z,2.60
2023-02-03T06:13:11.875Z,2.60
2023-02-03T06:15:41.421Z,2.03
2023-02-03T06:18:11.474Z,2.00
2023-02-03T06:20:39.577Z,2.60
2023-02-03T06:23:07.507Z,2.25
2023-02-03T06:25:35.475Z,2.72
2023-02-03T06:28:03.478Z,2.70
2023-02-03T06:30:31.662Z,2.53
2023-02-03T06:33:01.042Z,2.80
2023-02-03T06:35:29.024Z,3.08
2023-02-03T06:37:56.959Z,3.33
2023-02-03T06:40:25.115Z,3.20
2023-02-03T06:42:53.252Z,2.30
2023-02-03T06:45:24.842Z,2.42
2023-02-03T06:47:53.131Z,2.75
2023-02-03T06:50:22.436Z,2.33
2023-02-03T06:52:51.438Z,2.13
2023-02-03T06:55:19.624Z,2.45
2023-02-03T06:57:49.189Z,2.90
2023-02-03T07:00:19.612Z,2.80
2023-02-03T07:02:47.823Z,2.70
2023-02-03T07:05:15.866Z,2.65
2023-02-03T07:07:45.141Z,2.67
2023-02-03T07:10:13.154Z,2.95
2023-02-03T07:12:41.094Z,4.05
2023-02-03T07:15:12.702Z,2.58
2023-02-03T07:17:40.663Z,3.55
2023-02-03T07:20:09.695Z,3.85
2023-02-03T07:22:38.687Z,4.15
2023-02-03T07:25:10.937Z,4.22
2023-02-03T07:27:38.903Z,3.72
2023-02-03T07:30:07.840Z,4.00
2023-02-03T07:32:35.851Z,3.55
2023-02-03T07:35:03.795Z,3.72
2023-02-03T07:37:31.699Z,4.13
2023-02-03T07:39:59.695Z,4.05
2023-02-03T07:42:28.921Z,4.70
2023-02-03T07:44:56.954Z,3.92
2023-02-03T07:47:24.952Z,4.18
2023-02-03T07:49:52.855Z,5.07
2023-02-03T07:52:22.030Z,3.78
2023-02-03T07:54:50.099Z,4.45
2023-02-03T07:57:18.023Z,4.93
2023-02-03T07:59:47.320Z,4.70
2023-02-03T08:02:15.250Z,6.07
2023-02-03T08:04:43.255Z,5.63
2023-02-03T08:07:12.210Z,5.28
2023-02-03T08:09:40.167Z,4.60
2023-02-03T08:12:08.404Z,4.80
2023-02-03T08:14:36.355Z,4.65
2023-02-03T08:17:05.593Z,3.67
2023-02-03T08:19:33.954Z,4.07
2023-02-03T08:22:02.071Z,3.75
2023-02-03T08:24:29.994Z,3.30
2023-02-03T08:26:58.149Z,4.07
2023-02-03T08:29:26.075Z,3.95
2023-02-03T08:31:55.002Z,4.75
2023-02-03T08:34:24.365Z,3.97
2023-02-03T08:36:52.332Z,3.92
2023-02-03T08:39:20.287Z,4.32
2023-02-03T08:41:48.297Z,4.88
2023-02-03T08:44:16.177Z,4.20
2023-02-03T08:46:44.177Z,4.43
2023-02-03T08:49:12.223Z,4.28
2023-02-03T08:51:41.564Z,4.00
2023-02-03T08:54:09.474Z,3.58
2023-02-03T08:56:37.468Z,3.83
2023-02-03T08:59:05.455Z,3.70
2023-02-03T09:01:33.421Z,4.03
2023-02-03T09:04:01.974Z,3.55
2023-02-03T09:06:38.675Z,3.65
2023-02-03T09:09:08.077Z,3.97
2023-02-03T09:11:35.983Z,3.15
2023-02-03T09:14:05.242Z,2.95
2023-02-03T09:16:34.721Z,3.72
2023-02-03T09:19:03.347Z,3.60
2023-02-03T09:21:36.103Z,4.43
2023-02-03T09:24:13.959Z,3.60
2023-02-03T09:26:41.903Z,3.03
2023-02-03T09:29:09.968Z,2.78
2023-02-03T09:31:38.209Z,2.78
2023-02-03T09:34:06.165Z,3.10
2023-02-03T09:36:34.592Z,3.55
2023-02-03T09:39:02.822Z,3.47
2023-02-03T09:41:51.139Z,2.80
2023-02-03T09:44:28.261Z,3.88
2023-02-03T09:47:01.579Z,4.55
2023-02-03T09:49:38.592Z,3.55
2023-02-03T09:52:13.820Z,3.65
2023-02-03T09:54:45.806Z,3.65
2023-02-03T09:57:21.722Z,3.83
2023-02-03T09:59:50.314Z,4.30
2023-02-03T10:02:30.060Z,4.10
2023-02-03T10:05:01.224Z,2.78
2023-02-03T10:07:35.529Z,2.90
2023-02-03T10:10:12.819Z,2.13
2023-02-03T10:13:01.489Z,3.03
2023-02-03T10:15:56.840Z,4.35
2023-02-03T10:18:28.927Z,3.40
2023-02-03T10:21:01.210Z,2.40
2023-02-03T10:23:32.532Z,2.60
2023-02-03T10:26:03.545Z,2.67
2023-02-03T10:28:38.868Z,2.60
2023-02-03T10:31:16.804Z,2.78
2023-02-03T10:33:46.923Z,2.83
2023-02-03T10:36:21.245Z,2.17
2023-02-03T10:38:59.200Z,2.63
2023-02-03T10:41:28.924Z,1.92
2023-02-03T10:43:59.178Z,2.20
2023-02-03T10:46:30.301Z,1.90
2023-02-03T10:48:58.844Z,1.80
2023-02-03T10:51:32.722Z,2.17
2023-02-03T10:54:01.614Z,3.33
2023-02-03T10:56:33.000Z,1.95
2023-02-03T10:59:02.839Z,2.53
2023-02-03T11:01:42.527Z,2.10
2023-02-03T11:04:26.724Z,2.00
2023-02-03T11:06:57.298Z,1.90
2023-02-03T11:09:32.892Z,2.20
2023-02-03T11:12:10.702Z,1.90
2023-02-03T11:14:43.071Z,1.70
2023-02-03T11:17:17.014Z,2.65
2023-02-03T11:19:47.334Z,1.75
2023-02-03T11:22:28.533Z,1.42
2023-02-03T11:24:57.463Z,1.60
2023-02-03T11:27:27.677Z,1.92
2023-02-03T11:30:11.042Z,1.60
2023-02-03T11:32:42.492Z,1.80
2023-02-03T11:35:18.585Z,2.10
2023-02-03T11:37:48.697Z,2.15
2023-02-03T11:40:28.315Z,2.00
2023-02-03T11:43:14.863Z,2.15
2023-02-03T11:45:46.630Z,2.38
2023-02-03T11:48:26.265Z,2.00
2023-02-03T11:51:01.749Z,2.20
2023-02-03T11:53:56.240Z,2.42
2023-02-03T11:56:36.177Z,2.60
2023-02-03T11:59:21.368Z,2.40
2023-02-03T12:02:16.127Z,2.28
2023-02-03T12:05:05.987Z,2.58
2023-02-03T12:07:54.569Z,1.85
2023-02-03T12:10:36.973Z,1.80
2023-02-03T12:13:18.954Z,2.10
2023-02-03T12:16:02.797Z,3.10
2023-02-03T12:18:48.994Z,2.03
2023-02-03T12:21:33.790Z,2.58
2023-02-03T12:24:08.726Z,2.10
2023-02-03T12:26:43.027Z,1.80
2023-02-03T12:29:15.585Z,1.75
2023-02-03T12:31:50.929Z,2.50
2023-02-03T12:34:25.902Z,1.85
2023-02-03T12:36:58.520Z,2.10
2023-02-03T12:39:33.785Z,2.13
2023-02-03T12:42:05.374Z,2.50
2023-02-03T12:44:43.158Z,2.67
2023-02-03T12:47:19.107Z,2.92
2023-02-03T12:49:53.569Z,2.70
2023-02-03T12:52:27.614Z,2.22
2023-02-03T12:55:08.343Z,2.53
2023-02-03T12:57:39.579Z,2.22
2023-02-03T13:00:26.896Z,2.55
2023-02-03T13:03:08.862Z,2.65
2023-02-03T13:05:44.521Z,2.45
2023-02-03T13:08:19.861Z,2.33
2023-02-03T13:10:51.335Z,2.80
2023-02-03T13:13:30.905Z,2.30
2023-02-03T13:16:01.036Z,1.80
2023-02-03T13:18:33.581Z,2.30
2023-02-03T13:21:02.987Z,2.50
2023-02-03T13:23:33.904Z,2.15
2023-02-03T13:26:22.844Z,2.15
2023-02-03T13:29:09.872Z,2.08
2023-02-03T13:31:53.777Z,2.17
2023-02-03T13:34:41.827Z,2.58
2023-02-03T13:37:31.848Z,3.00
2023-02-03T13:40:16.759Z,3.00
2023-02-03T13:42:48.340Z,3.83
2023-02-03T13:45:23.243Z,3.60
2023-02-03T13:47:53.640Z,3.47
2023-02-03T13:50:25.079Z,3.30
2023-02-03T13:53:04.015Z,3.83
2023-02-03T13:55:37.939Z,3.15
2023-02-03T13:58:07.769Z,4.10
2023-02-03T14:01:15.691Z,3.25
2023-02-03T14:03:49.629Z,3.45
2023-02-03T14:07:00.719Z,3.78
2023-02-03T14:09:46.567Z,3.63
2023-02-03T14:12:33.925Z,3.58
2023-02-03T14:15:17.546Z,3.55
2023-02-03T14:18:05.941Z,3.80
2023-02-03T14:20:47.830Z,4.78
2023-02-03T14:23:22.341Z,3.65
2023-02-03T14:25:55.338Z,3.75
2023-02-03T14:28:26.807Z,4.13
2023-02-03T14:31:10.856Z,4.07
2023-02-03T14:34:06.377Z,4.00
2023-02-03T14:36:54.876Z,4.18
2023-02-03T14:40:10.466Z,3.45
2023-02-03T14:43:19.920Z,3.88
2023-02-03T14:46:20.815Z,4.07
2023-02-03T14:49:04.707Z,3.60
2023-02-03T14:51:52.874Z,3.08
2023-02-03T14:54:38.996Z,3.05
2023-02-03T14:57:23.247Z,2.88
2023-02-03T14:59:58.654Z,2.92
2023-02-03T15:02:28.516Z,2.70
2023-02-03T15:05:30.312Z,2.65
2023-02-03T15:08:01.291Z,2.47
2023-02-03T15:10:33.863Z,2.42
2023-02-03T15:13:02.811Z,2.80
2023-02-03T15:15:37.273Z,2.10
2023-02-03T15:18:21.127Z,2.30
2023-02-03T15:20:54.372Z,3.33
2023-02-03T15:23:25.236Z,1.45
2023-02-03T15:25:57.860Z,2.17
2023-02-03T15:28:27.714Z,1.70
2023-02-03T15:31:03.515Z,2.35
2023-02-03T15:33:36.069Z,1.98
2023-02-03T15:36:10.157Z,2.65
2023-02-03T15:38:41.428Z,2.63
2023-02-03T15:41:17.902Z,3.33
2023-02-03T15:43:48.794Z,2.58
2023-02-03T15:46:24.160Z,3.95
2023-02-03T15:48:57.637Z,5.63
2023-02-03T15:51:32.092Z,6.70
2023-02-03T15:54:03.738Z,4.60
2023-02-03T15:56:37.768Z,3.08
2023-02-03T15:59:07.067Z,3.50
2023-02-03T16:01:36.423Z,4.70
2023-02-03T16:04:14.445Z,3.38
2023-02-03T16:06:45.999Z,5.15
2023-02-03T16:09:29.292Z,4.40
2023-02-03T16:12:06.943Z,3.38
2023-02-03T16:14:36.450Z,3.50
2023-02-03T16:17:06.853Z,2.08
2023-02-03T16:19:38.280Z,2.63
2023-02-03T16:22:21.391Z,2.92
2023-02-03T16:24:49.384Z,2.65
2023-02-03T16:27:33.798Z,2.47
2023-02-03T16:30:43.364Z,3.03
2023-02-03T16:33:35.338Z,4.03
2023-02-03T16:36:29.354Z,3.58
2023-02-03T16:39:16.154Z,2.17
2023-02-03T16:42:01.548Z,3.08
2023-02-03T16:44:46.992Z,2.13
2023-02-03T16:47:42.106Z,1.30
2023-02-03T16:50:38.684Z,3.15
2023-02-03T16:53:12.341Z,1.48
2023-02-03T16:55:40.383Z,5.00
2023-02-03T16:58:08.722Z,2.83
2023-02-03T17:00:36.832Z,2.38
2023-02-03T17:03:05.644Z,3.10
2023-02-03T17:05:37.930Z,2.22
2023-02-03T17:08:06.214Z,2.08
2023-02-03T17:10:35.108Z,3.08
2023-02-03T17:13:03.056Z,4.28
2023-02-03T17:15:31.603Z,3.65
2023-02-03T17:17:59.953Z,4.32
2023-02-03T17:20:27.990Z,3.75
2023-02-03T17:22:57.357Z,5.13
2023-02-03T17:25:25.259Z,5.40
2023-02-03T17:27:56.490Z,2.58
2023-02-03T17:30:24.505Z,4.95
2023-02-03T17:32:52.657Z,2.78
2023-02-03T17:35:20.582Z,3.85
2023-02-03T17:37:48.476Z,5.25
2023-02-03T17:54:13.808Z,5.60
2023-02-03T17:56:47.352Z,3.70
2023-02-03T17:59:17.958Z,3.75
2023-02-03T18:01:46.759Z,4.00
2023-02-03T18:04:15.091Z,5.50
2023-02-03T18:06:43.091Z,2.85
2023-02-03T18:09:13.998Z,3.63
2023-02-03T18:11:44.777Z,2.95
2023-02-03T18:14:14.926Z,5.20
2023-02-03T18:16:43.952Z,5.97
2023-02-03T18:19:15.105Z,5.13
2023-02-03T18:21:43.956Z,4.93
2023-02-03T18:24:13.981Z,4.00
2023-02-03T18:26:49.766Z,4.13
2023-02-03T18:29:18.557Z,4.03
2023-02-03T18:31:46.682Z,4.40
2023-02-03T18:34:15.720Z,5.47
2023-02-03T18:36:43.814Z,4.38
2023-02-03T18:39:12.730Z,3.58
2023-02-03T18:41:40.896Z,4.07
2023-02-03T18:44:10.316Z,5.32
2023-02-03T18:46:38.268Z,4.78
2023-02-03T18:49:11.027Z,2.53
2023-02-03T18:51:39.312Z,3.63
2023-02-03T18:54:07.234Z,2.08
2023-02-03T18:56:35.931Z,2.00
2023-02-03T18:59:08.488Z,3.28
2023-02-03T19:01:38.921Z,0.75
2023-02-03T19:04:07.433Z,2.63
2023-02-03T19:06:36.435Z,1.25
2023-02-03T19:09:05.406Z,3.10
2023-02-03T19:11:34.970Z,4.38
2023-02-03T19:14:03.034Z,1.98
2023-02-03T19:16:31.213Z,3.38
2023-02-03T19:19:01.880Z,2.92
2023-02-03T19:21:29.797Z,2.70
2023-02-03T19:23:57.775Z,3.47
2023-02-03T19:26:27.642Z,2.13
2023-02-03T19:28:58.476Z,3.38
2023-02-03T19:31:26.578Z,3.67
2023-02-03T19:33:54.693Z,5.18
2023-02-03T19:36:23.954Z,2.20
2023-02-03T19:38:52.082Z,4.05
2023-02-03T19:41:20.190Z,2.90
2023-02-03T19:43:51.848Z,4.03
2023-02-03T19:46:21.760Z,3.20
2023-02-03T19:48:50.034Z,2.83
2023-02-03T19:51:18.090Z,4.97
2023-02-03T19:53:47.427Z,3.92
2023-02-03T19:56:15.805Z,4.22
2023-02-03T19:58:45.875Z,3.47
2023-02-03T20:01:15.582Z,3.92
2023-02-03T20:03:43.923Z,2.67
2023-02-03T20:06:12.078Z,3.53
2023-02-03T20:08:40.527Z,3.63
2023-02-03T20:11:14.787Z,3.58
2023-02-03T20:13:43.415Z,3.90
2023-02-03T20:16:11.558Z,3.03
2023-02-03T20:18:42.186Z,4.30
2023-02-03T20:21:10.518Z,4.30
2023-02-03T20:23:38.736Z,2.28
2023-02-03T20:26:07.097Z,3.63
2023-02-03T20:28:36.425Z,2.20
2023-02-03T20:31:05.248Z,2.58
2023-02-03T20:33:33.314Z,2.70
2023-02-03T20:36:01.226Z,2.35
2023-02-03T20:38:29.461Z,3.17
2023-02-03T20:40:57.373Z,1.80
2023-02-03T20:43:27.880Z,3.05
2023-02-03T20:45:57.142Z,2.22
2023-02-03T20:48:25.631Z,4.07
2023-02-03T20:50:53.990Z,2.90
2023-02-03T20:53:24.015Z,3.25
2023-02-03T20:55:52.910Z,2.92
2023-02-03T20:58:25.209Z,2.28
2023-02-03T21:00:57.089Z,1.90
2023-02-03T21:03:45.098Z,2.15
2023-02-03T21:06:15.017Z,2.17
2023-02-03T21:08:43.682Z,2.75
2023-02-03T21:11:13.290Z,2.17
2023-02-03T21:13:43.414Z,2.55
2023-02-03T21:16:17.864Z,2.80
2023-02-03T21:18:49.698Z,2.03
2023-02-03T21:21:24.685Z,2.30
2023-02-03T21:23:53.512Z,2.10
2023-02-03T21:26:23.288Z,2.42
2023-02-03T21:28:53.028Z,2.83
2023-02-03T21:31:27.274Z,2.28
2023-02-03T21:33:57.960Z,1.67
2023-02-03T21:36:28.144Z,2.33
2023-02-03T21:38:59.059Z,2.50
2023-02-03T21:41:33.205Z,1.00
2023-02-03T21:44:01.312Z,1.38
2023-02-03T21:46:33.187Z,1.85
2023-02-03T21:49:03.664Z,2.60
2023-02-03T21:51:36.240Z,2.28
2023-02-03T21:54:17.875Z,2.50
2023-02-03T21:56:45.913Z,1.90
2023-02-03T21:59:17.698Z,3.33
2023-02-03T22:01:47.224Z,3.13
2023-02-03T22:04:16.771Z,2.60
2023-02-03T22:06:46.914Z,2.63
2023-02-03T22:09:16.793Z,2.08
2023-02-03T22:11:45.154Z,1.40
2023-02-03T22:14:17.276Z,2.75
2023-02-03T22:16:45.605Z,2.85
2023-02-03T22:19:13.786Z,3.42
2023-02-03T22:21:43.082Z,4.95
2023-02-03T22:24:11.030Z,3.30
2023-02-03T22:26:39.340Z,3.97
2023-02-03T22:29:07.261Z,3.33
2023-02-03T22:31:35.358Z,2.67
2023-02-03T22:34:03.406Z,2.97
2023-02-03T22:36:31.328Z,3.05
2023-02-03T22:39:00.587Z,3.00
2023-02-03T22:41:28.496Z,1.20
2023-02-03T22:43:56.411Z,2.35
2023-02-03T22:46:24.399Z,3.10
2023-02-03T22:48:52.345Z,3.90
2023-02-03T22:51:20.249Z,3.92
2023-02-03T22:53:48.239Z,3.33
2023-02-03T22:56:17.505Z,3.10
2023-02-03T22:58:45.509Z,3.83
2023-02-03T23:01:13.479Z,2.78
2023-02-03T23:03:41.378Z,2.95
2023-02-03T23:06:09.300Z,2.75
2023-02-03T23:08:37.199Z,3.70
2023-02-03T23:11:05.238Z,3.90
2023-02-03T23:13:34.522Z,2.72
2023-02-03T23:16:02.464Z,2.55
2023-02-03T23:18:33.688Z,2.50
2023-02-03T23:21:01.591Z,2.80
2023-02-03T23:23:31.169Z,2.60
2023-02-03T23:25:59.078Z,3.08
2023-02-03T23:28:27.005Z,2.83
2023-02-03T23:30:56.720Z,2.97
2023-02-03T23:33:24.724Z,3.45
2023-02-03T23:35:55.288Z,3.45
2023-02-03T23:38:23.203Z,3.35
2023-02-03T23:40:51.388Z,3.08
2023-02-03T23:43:19.287Z,4.20
2023-02-03T23:45:47.482Z,3.85
2023-02-03T23:48:17.656Z,4.15
2023-02-03T23:50:45.569Z,3.13
2023-02-03T23:53:13.501Z,2.17
2023-02-03T23:55:41.408Z,3.67
2023-02-03T23:58:09.403Z,3.33
